Time;durP1;ratioP1;P1;durP2;ratioP2;P2;SDS_P1;SDS_P2;PMS_P1;PMS_P2;Temp;Humidity;BMP_temperature;BMP_pressure;BME280_temperature;BME280_humidity;BME280_pressure;Samples;Min_cycle;Max_cycle;Signal;HPM_P1;HPM_P2
2022/10/30 00:04:30;;;;;;;35.92;25.45;;;;;;;6.51;83.74;98470.06;10334395;28;20099;-54
2022/10/30 00:09:28;;;;;;;36.10;24.05;;;;;;;6.50;83.64;98475.19;10333427;28;20128;-54
2022/10/30 00:14:27;;;;;;;35.65;25.40;;;;;;;6.50;83.76;98476.06;10334134;28;20120;-54
2022/10/30 00:19:26;;;;;;;38.30;25.00;;;;;;;6.45;84.51;98471.63;10333751;28;20041;-54
2022/10/30 00:24:25;;;;;;;35.50;24.00;;;;;;;6.35;84.41;98461.06;10333623;28;20544;-54
2022/10/30 00:29:25;;;;;;;32.58;23.50;;;;;;;6.40;84.40;98462.06;10332983;28;20408;-54
2022/10/30 00:34:24;;;;;;;35.30;23.55;;;;;;;6.40;84.26;98449.19;10331768;28;20056;-54
2022/10/30 00:39:23;;;;;;;40.00;25.00;;;;;;;6.38;83.99;98455.13;10331671;28;20034;-54
2022/10/30 00:44:45;;;;;;;36.50;25.08;;;;;;;6.36;84.90;98447.34;10334563;28;20037;-53
2022/10/30 00:50:18;;;;;;;72.57;40.95;;;;;;;6.14;85.10;98439.84;10335491;28;20095;-54
2022/10/30 00:55:24;;;;;;;52.40;34.03;;;;;;;6.10;85.44;98438.03;10335976;28;20064;-54
2022/10/30 01:00:26;;;;;;;58.20;35.95;;;;;;;6.08;85.28;98429.38;10335601;28;20033;-54
2022/10/30 01:05:27;;;;;;;49.97;32.80;;;;;;;6.08;85.10;98427.69;10335296;28;20060;-54
2022/10/30 01:10:26;;;;;;;46.70;29.65;;;;;;;6.08;84.38;98426.81;10335031;28;20080;-54
2022/10/30 01:15:34;;;;;;;40.15;26.83;;;;;;;6.06;84.50;98426.75;10335137;28;20048;-54
2022/10/30 01:20:39;;;;;;;34.67;22.48;;;;;;;6.03;84.69;98420.66;10335672;28;20064;-53
2022/10/30 01:26:10;;;;;;;32.70;22.75;;;;;;;5.96;85.04;98412.75;10335125;28;20032;-54
2022/10/30 01:31:21;;;;;;;34.60;23.65;;;;;;;5.86;84.40;98413.34;10334545;28;20184;-54
2022/10/30 01:36:26;;;;;;;37.65;24.92;;;;;;;5.69;84.57;98414.53;10334724;28;20061;-53
2022/10/30 01:41:25;;;;;;;34.03;23.85;;;;;;;5.50;85.69;98408.84;10334254;28;20048;-54
2022/10/30 01:46:27;;;;;;;33.22;21.77;;;;;;;5.41;85.16;98406.00;10330986;28;20068;-54
2022/10/30 01:51:32;;;;;;;34.67;22.13;;;;;;;5.39;85.39;98402.53;10330942;28;20073;-54
2022/10/30 01:56:40;;;;;;;33.72;22.88;;;;;;;5.36;85.50;98399.84;10337796;28;20075;-54
2022/10/30 02:01:40;;;;;;;36.35;22.75;;;;;;;5.32;85.52;98392.88;10338506;28;20061;-54
2022/10/30 02:06:39;;;;;;;34.05;23.25;;;;;;;5.27;86.08;98400.44;10339018;28;20057;-54
2022/10/30 02:11:38;;;;;;;;;;;;;;;5.23;86.34;98387.47;10339049;28;20523;-54
2022/10/30 02:16:43;;;;;;;38.83;24.95;;;;;;;5.21;86.49;98389.97;10338198;28;20479;-54
2022/10/30 02:21:42;;;;;;;44.25;27.58;;;;;;;5.12;86.97;98403.44;10338270;28;20064;-54
2022/10/30 02:26:41;;;;;;;43.97;29.15;;;;;;;5.09;87.23;98410.19;10338300;28;20030;-54
2022/10/30 02:31:40;;;;;;;47.20;28.83;;;;;;;5.04;87.45;98398.88;10336605;28;20048;-54
2022/10/30 02:36:40;;;;;;;46.45;31.27;;;;;;;4.99;87.57;98393.56;10337504;28;20069;-54
2022/10/30 02:41:39;;;;;;;44.60;30.63;;;;;;;4.99;87.81;98396.16;10337411;28;20429;-54
2022/10/30 02:46:39;;;;;;;40.13;26.60;;;;;;;4.96;87.71;98398.63;10337122;28;20500;-53
2022/10/30 02:51:37;;;;;;;;;;;;;;;4.92;87.66;98395.06;10337202;28;20571;-54
2022/10/30 02:56:39;;;;;;;40.10;24.95;;;;;;;4.87;87.58;98395.75;10336838;28;19909;-54
2022/10/30 03:01:38;;;;;;;37.95;24.42;;;;;;;4.89;87.58;98400.09;10335250;28;20057;-54
2022/10/30 03:06:37;;;;;;;35.53;24.63;;;;;;;4.89;87.41;98400.09;10335088;28;20504;-54
2022/10/30 03:11:36;;;;;;;36.45;25.17;;;;;;;4.89;87.43;98399.22;10336052;28;20116;-54
2022/10/30 03:16:35;;;;;;;34.55;24.55;;;;;;;4.87;87.60;98411.16;10336101;28;20552;-53
2022/10/30 03:21:34;;;;;;;38.83;24.13;;;;;;;4.83;87.74;98396.47;10335814;28;20557;-56
2022/10/30 03:26:33;;;;;;;31.10;22.45;;;;;;;4.85;87.73;98402.53;10335853;28;20025;-53
2022/10/30 03:31:32;;;;;;;32.60;22.35;;;;;;;4.86;87.86;98402.59;10333857;28;20398;-53
2022/10/30 03:36:31;;;;;;;29.50;21.73;;;;;;;4.89;87.63;98402.66;10334975;28;20061;-54
2022/10/30 03:41:30;;;;;;;28.15;19.95;;;;;;;4.89;87.83;98387.25;10335368;28;20029;-53
2022/10/30 03:46:30;;;;;;;30.77;20.38;;;;;;;4.90;87.91;98401.88;10338046;28;20116;-53
2022/10/30 03:51:29;;;;;;;31.20;21.85;;;;;;;4.82;88.25;98389.59;10337627;28;20073;-53
2022/10/30 03:56:28;;;;;;;35.50;23.50;;;;;;;4.83;87.96;98399.94;10337888;28;20113;-54
2022/10/30 04:01:27;;;;;;;44.65;26.88;;;;;;;4.79;88.23;98402.34;10337735;28;20105;-54
2022/10/30 04:06:26;;;;;;;40.95;28.63;;;;;;;4.73;88.08;98400.44;10337590;28;20507;-53
2022/10/30 04:11:25;;;;;;;46.28;28.50;;;;;;;4.63;87.79;98404.41;10337224;28;20044;-54
2022/10/30 04:16:24;;;;;;;37.60;25.50;;;;;;;4.55;87.77;98395.59;10336544;28;20095;-55
2022/10/30 04:21:23;;;;;;;35.88;25.50;;;;;;;4.47;87.63;98391.88;10336909;28;20479;-54
2022/10/30 04:26:22;;;;;;;39.40;24.27;;;;;;;4.42;87.68;98393.41;10336567;28;20483;-54
2022/10/30 04:31:21;;;;;;;41.35;26.05;;;;;;;4.35;87.20;98388.91;10336401;28;20407;-54
2022/10/30 04:36:20;;;;;;;35.88;25.38;;;;;;;4.23;87.23;98379.94;10336327;28;20759;-55
2022/10/30 04:41:19;;;;;;;37.95;26.95;;;;;;;4.20;87.24;98392.69;10336123;28;20389;-55
2022/10/30 04:46:18;;;;;;;38.55;27.05;;;;;;;4.15;88.04;98386.53;10332636;28;20467;-55
2022/10/30 04:51:17;;;;;;;41.22;27.83;;;;;;;4.08;88.04;98387.16;10331679;28;20464;-55
2022/10/30 04:56:16;;;;;;;37.80;25.38;;;;;;;4.06;87.91;98379.38;10332330;28;20116;-55
2022/10/30 05:01:15;;;;;;;38.50;26.50;;;;;;;4.07;87.89;98390.53;10332029;28;20065;-55
2022/10/30 05:06:21;;;;;;;41.38;28.50;;;;;;;4.04;88.14;98386.16;10331759;28;20044;-55
2022/10/30 05:11:20;;;;;;;58.08;36.42;;;;;;;4.06;87.81;98384.50;10332055;28;20057;-55
2022/10/30 05:16:19;;;;;;;54.22;34.10;;;;;;;4.07;87.97;98369.97;10332363;28;20030;-55
2022/10/30 05:21:18;;;;;;;48.08;27.65;;;;;;;4.08;87.94;98371.75;10326611;28;20028;-55
2022/10/30 05:26:16;;;;;;;49.75;32.15;;;;;;;4.01;88.10;98373.22;10329458;28;20401;-55
2022/10/30 05:31:15;;;;;;;64.20;37.03;;;;;;;3.99;88.07;98366.28;10336445;28;20128;-55
2022/10/30 05:36:14;;;;;;;68.25;40.28;;;;;;;4.01;88.13;98373.22;10338542;28;20112;-55
2022/10/30 05:41:13;;;;;;;70.88;41.65;;;;;;;4.10;87.96;98380.34;10337194;28;20033;-55
2022/10/30 05:46:12;;;;;;;65.30;38.42;;;;;;;4.25;87.38;98380.88;10339552;28;20508;-55
2022/10/30 05:51:11;;;;;;;61.08;38.53;;;;;;;4.41;87.39;98377.13;10336877;28;20515;-55
2022/10/30 05:56:10;;;;;;;47.05;33.33;;;;;;;4.53;87.33;98375.81;10337516;28;20116;-55
2022/10/30 06:01:09;;;;;;;48.25;33.63;;;;;;;4.56;86.95;98383.59;10337285;28;20026;-55
2022/10/30 06:06:08;;;;;;;47.80;30.85;;;;;;;4.59;86.85;98365.69;10336539;28;20053;-55
2022/10/30 06:11:07;;;;;;;32.25;24.25;;;;;;;4.53;86.94;98366.38;10336733;28;20041;-55
2022/10/30 06:16:06;;;;;;;32.95;22.23;;;;;;;4.23;87.88;98373.94;10333871;28;20088;-55
2022/10/30 06:21:05;;;;;;;29.13;22.45;;;;;;;4.17;88.45;98381.44;10332226;28;20144;-55
2022/10/30 06:26:04;;;;;;;39.28;24.83;;;;;;;4.19;88.34;98370.38;10333257;28;20067;-55
2022/10/30 06:31:03;;;;;;;31.02;23.48;;;;;;;4.47;88.05;98379.03;10335564;28;20030;-55
2022/10/30 06:36:02;;;;;;;32.47;24.00;;;;;;;4.72;88.19;98373.84;10335779;28;20073;-56
2022/10/30 06:41:01;;;;;;;;;;;;;;;4.99;87.80;98374.69;10335659;28;20072;-55
2022/10/30 06:46:00;;;;;;;37.85;26.73;;;;;;;5.23;88.20;98372.03;10338675;28;19955;-55
2022/10/30 06:51:01;;;;;;;36.25;27.15;;;;;;;5.46;88.43;98375.25;10338237;28;20076;-55
2022/10/30 06:56:02;;;;;;;35.20;27.52;;;;;;;5.71;88.46;98376.84;10338110;28;20060;-55
2022/10/30 07:01:01;;;;;;;35.85;26.30;;;;;;;5.96;88.45;98373.25;10338032;28;20076;-55
2022/10/30 07:06:00;;;;;;;33.45;25.38;;;;;;;6.29;88.74;98380.13;10338143;28;20112;-55
2022/10/30 07:10:59;;;;;;;44.03;29.83;;;;;;;6.52;87.81;98367.84;10337604;28;20069;-55
2022/10/30 07:15:58;;;;;;;40.10;31.52;;;;;;;6.78;87.70;98361.59;10338048;28;20108;-56
2022/10/30 07:20:57;;;;;;;46.67;34.28;;;;;;;7.05;87.59;98350.16;10336205;28;20069;-56
2022/10/30 07:25:58;;;;;;;50.15;37.63;;;;;;;7.34;87.37;98347.34;10335776;28;20045;-56
2022/10/30 07:30:57;;;;;;;44.47;33.95;;;;;;;7.66;86.59;98341.19;10337302;28;20053;-56
2022/10/30 07:35:59;;;;;;;43.90;32.33;;;;;;;7.97;86.59;98336.59;10336611;28;20064;-56
2022/10/30 07:40:58;;;;;;;37.88;30.48;;;;;;;8.26;86.61;98325.91;10336568;28;20468;-55
2022/10/30 07:45:57;;;;;;;40.80;32.13;;;;;;;8.59;86.08;98324.72;10333310;28;20479;-56
2022/10/30 07:50:56;;;;;;;36.70;29.13;;;;;;;8.84;85.21;98320.81;10331692;28;20041;-56
2022/10/30 07:55:55;;;;;;;37.03;26.80;;;;;;;9.14;84.98;98320.38;10332235;28;20029;-55
2022/10/30 08:00:55;;;;;;;27.42;22.25;;;;;;;9.43;83.47;98312.16;10328926;28;20055;-56
2022/10/30 08:05:54;;;;;;;;;;;;;;;9.81;82.92;98303.94;10328853;28;20523;-56
2022/10/30 08:10:52;;;;;;;25.13;18.58;;;;;;;10.13;80.67;98297.34;10328038;28;20352;-55
2022/10/30 08:15:51;;;;;;;26.38;19.92;;;;;;;10.50;80.22;98302.00;10332066;28;20568;-56
2022/10/30 08:20:50;;;;;;;25.90;19.83;;;;;;;10.81;78.79;98287.53;10331204;28;20510;-57
2022/10/30 08:25:49;;;;;;;27.02;21.20;;;;;;;11.11;77.97;98276.50;10331538;28;20029;-55
2022/10/30 08:30:48;;;;;;;28.40;22.05;;;;;;;11.39;76.39;98279.22;10331296;28;20044;-56
2022/10/30 08:35:52;;;;;;;26.33;18.95;;;;;;;11.59;72.90;98271.47;10331480;28;20417;-55
2022/10/30 08:40:51;;;;;;;29.73;19.50;;;;;;;11.84;71.45;98267.22;10331177;28;20068;-56
2022/10/30 08:45:50;;;;;;;24.38;15.07;;;;;;;12.21;69.80;98270.75;10330415;28;20061;-56
2022/10/30 08:50:49;;;;;;;14.80;10.65;;;;;;;12.60;68.93;98269.06;10330620;28;20073;-56
2022/10/30 08:55:50;;;;;;;13.80;10.38;;;;;;;12.90;69.47;98262.03;10330313;28;20033;-56
2022/10/30 09:00:49;;;;;;;14.80;9.88;;;;;;;13.21;68.56;98259.34;10330590;28;20053;-56
2022/10/30 09:05:48;;;;;;;11.07;7.55;;;;;;;13.49;66.92;98247.94;10330373;28;20029;-56
2022/10/30 09:10:53;;;;;;;9.30;6.78;;;;;;;13.75;64.19;98233.94;10329632;28;20072;-55
2022/10/30 09:15:52;;;;;;;9.27;5.63;;;;;;;14.03;60.93;98231.13;10330407;28;20544;-56
2022/10/30 09:20:51;;;;;;;8.52;5.85;;;;;;;14.13;57.42;98222.38;10329595;28;20509;-56
2022/10/30 09:25:50;;;;;;;9.80;6.15;;;;;;;14.38;56.68;98217.78;10329644;28;20021;-56
2022/10/30 09:30:51;;;;;;;11.57;6.93;;;;;;;14.72;56.36;98213.16;10329319;28;20069;-55
2022/10/30 09:35:50;;;;;;;11.10;7.45;;;;;;;14.97;55.14;98200.69;10330173;28;20527;-55
2022/10/30 09:41:09;;;;;;;;;;;;;;;15.23;53.17;98186.44;10329668;28;20029;-55
2022/10/30 09:46:29;;;;;;;9.35;5.93;;;;;;;15.63;52.47;98188.53;10329829;28;20740;-55
2022/10/30 09:52:05;;;;;;;11.60;7.32;;;;;;;15.88;51.53;98181.22;10329632;28;20080;-55
2022/10/30 09:57:08;;;;;;;11.10;5.35;;;;;;;16.18;50.18;98176.34;10329161;28;20068;-55
2022/10/30 10:02:21;;;;;;;8.60;5.35;;;;;;;16.44;49.71;98158.44;10328563;28;20060;-55
2022/10/30 10:07:26;;;;;;;10.15;5.90;;;;;;;16.72;49.25;98152.66;10328971;28;20477;-55
2022/10/30 10:12:32;;;;;;;9.27;5.88;;;;;;;16.98;48.64;98146.06;10329132;28;20073;-55
2022/10/30 10:17:37;;;;;;;8.93;5.90;;;;;;;17.18;47.51;98128.16;10334996;28;20080;-55
2022/10/30 10:22:50;;;;;;;6.35;4.65;;;;;;;17.38;46.60;98111.13;10336155;28;20049;-54
2022/10/30 10:28:14;;;;;;;9.02;5.65;;;;;;;17.64;46.04;98116.66;10336350;28;20516;-55
2022/10/30 10:33:16;;;;;;;10.82;5.75;;;;;;;17.86;45.55;98108.28;10336015;28;20457;-55
2022/10/30 10:38:44;;;;;;;9.70;5.85;;;;;;;18.15;44.24;98100.53;10335361;28;20091;-55
2022/10/30 10:44:05;;;;;;;10.38;5.30;;;;;;;18.42;43.01;98092.81;10336327;28;20064;-54
2022/10/30 10:49:19;;;;;;;9.57;5.00;;;;;;;18.73;42.45;98084.09;10335359;28;20084;-55
2022/10/30 10:54:24;;;;;;;6.57;3.90;;;;;;;18.97;41.77;98075.53;10334862;28;20080;-55
2022/10/30 10:59:31;;;;;;;7.47;4.28;;;;;;;19.23;40.61;98068.59;10334315;28;20072;-54
2022/10/30 11:04:38;;;;;;;6.35;4.13;;;;;;;19.44;39.14;98049.50;10335242;28;20623;-56
2022/10/30 11:09:37;;;;;;;7.05;4.38;;;;;;;19.75;39.30;98045.91;10334455;28;20063;-56
2022/10/30 11:14:36;;;;;;;6.88;3.85;;;;;;;20.07;38.30;98043.94;10334345;28;20516;-55
2022/10/30 11:19:35;;;;;;;8.57;4.35;;;;;;;20.37;36.86;98034.06;10334266;28;20068;-55
2022/10/30 11:24:35;;;;;;;7.95;4.43;;;;;;;20.67;36.69;98024.22;10334253;28;20112;-56
2022/10/30 11:29:34;;;;;;;8.13;2.80;;;;;;;20.95;34.83;98022.31;10332213;28;20602;-56
2022/10/30 11:34:37;;;;;;;6.50;3.08;;;;;;;21.24;34.57;98015.91;10334269;28;20445;-55
2022/10/30 11:39:36;;;;;;;12.38;3.40;;;;;;;21.39;34.18;98012.66;10332705;28;20083;-55
2022/10/30 11:44:43;;;;;;;7.97;3.63;;;;;;;21.38;34.13;98010.09;10335356;28;20040;-55
2022/10/30 11:49:53;;;;;;;6.53;3.08;;;;;;;21.38;34.31;97997.75;10336241;28;20108;-55
2022/10/30 11:54:58;;;;;;;8.05;3.42;;;;;;;21.57;33.87;98000.50;10336617;28;20081;-55
2022/10/30 11:59:57;;;;;;;5.80;2.58;;;;;;;21.79;33.41;97992.53;10335266;28;20485;-55
2022/10/30 12:05:01;;;;;;;5.95;2.38;;;;;;;22.06;32.30;97992.28;10336760;28;20060;-55
2022/10/30 12:10:01;;;;;;;4.80;2.25;;;;;;;22.22;32.13;97977.47;10335638;28;20516;-55
2022/10/30 12:15:19;;;;;;;5.28;1.95;;;;;;;22.42;32.21;97973.09;10334907;28;20069;-55
2022/10/30 12:20:19;;;;;;;3.50;2.00;;;;;;;22.58;31.64;97960.88;10334802;28;20049;-55
2022/10/30 12:25:25;;;;;;;6.50;2.80;;;;;;;22.74;31.03;97958.38;10334875;28;20065;-54
2022/10/30 12:30:27;;;;;;;6.38;2.55;;;;;;;22.89;29.83;97962.09;10334495;28;20057;-55
2022/10/30 12:35:29;;;;;;;6.13;3.70;;;;;;;23.07;29.54;97961.22;10334657;28;20465;-54
2022/10/30 12:40:37;;;;;;;4.78;2.50;;;;;;;23.30;29.22;97959.22;10334492;28;20065;-54
2022/10/30 12:45:42;;;;;;;4.10;2.22;;;;;;;23.52;29.04;97949.31;10331921;28;20480;-54
2022/10/30 12:50:56;;;;;;;10.93;2.95;;;;;;;23.63;29.10;97949.66;10330093;28;20080;-55
2022/10/30 12:56:07;;;;;;;5.80;2.40;;;;;;;23.69;28.80;97945.81;10332035;28;20072;-54
2022/10/30 13:01:16;;;;;;;4.03;2.00;;;;;;;23.70;29.11;97944.91;10330496;28;20064;-54
2022/10/30 13:06:19;;;;;;;3.63;2.10;;;;;;;23.44;29.01;97941.75;10330674;28;20521;-54
2022/10/30 13:11:39;;;;;;;3.58;2.05;;;;;;;23.44;28.69;97932.91;10330064;28;20060;-54
2022/10/30 13:16:38;;;;;;;7.55;1.98;;;;;;;23.37;29.19;97936.81;10329809;28;20072;-55
2022/10/30 13:21:45;;;;;;;3.60;1.77;;;;;;;23.32;29.49;97939.69;10329431;28;20035;-54
2022/10/30 13:26:51;;;;;;;4.53;1.67;;;;;;;23.22;28.77;97931.34;10330558;28;20480;-55
2022/10/30 13:32:22;;;;;;;13.23;7.70;;;;;;;23.50;28.55;97942.41;10329830;28;20084;-54
2022/10/30 13:37:41;;;;;;;6.15;3.03;;;;;;;23.66;29.75;97940.69;10327286;28;20500;-55
2022/10/30 13:42:52;;;;;;;;;;;;;;;23.58;29.99;97943.72;10329762;28;20073;-54
2022/10/30 13:47:57;;;;;;;5.75;2.20;;;;;;;23.56;30.40;97945.59;10330131;28;19964;-55
2022/10/30 13:53:01;;;;;;;5.60;2.30;;;;;;;23.43;31.10;97940.00;10336765;28;20485;-54
2022/10/30 13:58:03;;;;;;;43.25;19.70;;;;;;;23.50;31.41;97945.91;10336993;28;20075;-54
2022/10/30 14:03:39;;;;;;;18.08;8.65;;;;;;;23.32;31.92;97946.78;10338146;28;20521;-54
2022/10/30 14:08:41;;;;;;;15.75;6.80;;;;;;;22.89;32.14;97964.75;10336688;28;20120;-54
2022/10/30 14:13:56;;;;;;;21.42;10.90;;;;;;;22.62;32.84;97962.44;10337331;28;20068;-55
2022/10/30 14:19:03;;;;;;;8.15;2.90;;;;;;;22.39;33.50;97964.34;10337044;28;20079;-54
2022/10/30 14:24:11;;;;;;;19.02;11.30;;;;;;;22.07;33.90;97960.50;10336630;28;20075;-54
2022/10/30 14:29:34;;;;;;;8.20;3.20;;;;;;;21.90;34.25;97958.59;10335717;28;20819;-54
2022/10/30 14:34:40;;;;;;;10.23;3.55;;;;;;;21.73;34.23;97961.06;10335229;28;20073;-54
2022/10/30 14:39:44;;;;;;;6.25;2.60;;;;;;;21.55;34.54;97963.59;10336029;28;20065;-54
2022/10/30 14:45:09;;;;;;;10.43;2.20;;;;;;;21.27;34.67;97965.66;10335180;28;20057;-54
2022/10/30 14:50:19;;;;;;;3.88;1.83;;;;;;;21.08;34.63;97963.72;10334674;28;20077;-54
2022/10/30 14:55:32;;;;;;;9.20;2.35;;;;;;;20.98;34.61;97965.00;10336323;28;20065;-55
2022/10/30 15:00:34;;;;;;;7.70;2.80;;;;;;;20.77;35.06;97971.97;10334870;28;20068;-55
2022/10/30 15:06:01;;;;;;;8.40;3.15;;;;;;;20.59;35.48;97965.66;10335031;28;20082;-55
2022/10/30 15:11:09;;;;;;;11.95;5.43;;;;;;;20.40;36.17;97970.75;10334211;28;20068;-54
2022/10/30 15:16:15;;;;;;;20.93;6.90;;;;;;;20.14;37.02;97969.06;10334615;28;20079;-55
2022/10/30 15:21:22;;;;;;;19.17;8.82;;;;;;;19.85;37.66;97963.03;10333635;28;20387;-55
2022/10/30 15:26:25;;;;;;;12.95;7.35;;;;;;;19.56;38.25;97976.34;10334260;28;20082;-54
2022/10/30 15:31:25;;;;;;;17.95;9.10;;;;;;;19.35;38.32;97967.38;10334034;28;20068;-55
2022/10/30 15:36:34;;;;;;;15.70;8.40;;;;;;;19.16;39.04;97967.09;10333673;28;20495;-54
2022/10/30 15:41:45;;;;;;;22.00;11.15;;;;;;;18.93;39.74;97970.47;10333462;28;20468;-55
2022/10/30 15:46:47;;;;;;;35.15;12.70;;;;;;;18.72;40.34;97971.97;10332647;28;20540;-55
2022/10/30 15:51:46;;;;;;;26.50;14.00;;;;;;;18.46;41.41;97970.97;10331868;28;20489;-55
2022/10/30 15:56:49;;;;;;;26.73;15.07;;;;;;;18.22;42.10;97977.75;10329449;28;20500;-55
2022/10/30 16:01:48;;;;;;;26.70;15.30;;;;;;;17.97;43.34;97978.44;10329591;28;20052;-55
2022/10/30 16:06:51;;;;;;;25.27;16.40;;;;;;;17.59;44.18;97975.94;10330137;28;20056;-55
2022/10/30 16:11:52;;;;;;;21.40;12.40;;;;;;;17.37;44.28;97980.88;10332959;28;20076;-55
2022/10/30 16:16:52;;;;;;;16.98;9.23;;;;;;;17.15;44.63;97981.41;10333849;28;20171;-55
2022/10/30 16:21:52;;;;;;;14.18;8.45;;;;;;;16.95;44.92;97999.34;10333912;28;20076;-55
2022/10/30 16:27:21;;;;;;;18.20;7.43;;;;;;;16.80;44.97;97992.66;10333385;28;20092;-55
2022/10/30 16:32:23;;;;;;;12.38;6.25;;;;;;;16.67;45.25;97992.91;10333042;28;20060;-55
2022/10/30 16:37:32;;;;;;;17.92;9.75;;;;;;;16.57;45.59;98001.88;10333650;28;20481;-55
2022/10/30 16:42:32;;;;;;;31.63;14.18;;;;;;;16.38;46.39;98006.63;10333185;28;20088;-55
2022/10/30 16:47:36;;;;;;;37.05;20.02;;;;;;;16.30;46.83;98017.28;10335543;28;20061;-55
2022/10/30 16:52:35;;;;;;;193.57;99.18;;;;;;;16.19;47.22;98026.22;10335875;28;20068;-55
2022/10/30 16:57:36;;;;;;;62.50;34.10;;;;;;;16.06;47.78;98007.25;10335941;28;20064;-55
2022/10/30 17:02:43;;;;;;;33.25;20.58;;;;;;;15.88;48.43;98026.81;10336108;28;20421;-55
2022/10/30 17:08:11;;;;;;;38.67;22.77;;;;;;;15.78;48.22;98025.19;10335578;28;20033;-55
2022/10/30 17:13:30;;;;;;;32.83;18.58;;;;;;;15.66;48.67;98024.50;10335390;28;20069;-55
2022/10/30 17:18:31;;;;;;;37.78;21.42;;;;;;;15.54;48.76;98023.88;10334573;28;20049;-55
2022/10/30 17:23:33;;;;;;;34.33;16.95;;;;;;;15.47;49.14;98025.72;10333751;28;20519;-55
2022/10/30 17:28:35;;;;;;;32.35;17.92;;;;;;;15.33;49.51;98020.69;10335106;28;20038;-54
2022/10/30 17:33:36;;;;;;;25.42;14.57;;;;;;;15.15;50.15;98020.97;10334371;28;20073;-55
2022/10/30 17:38:35;;;;;;;43.85;17.08;;;;;;;15.00;50.71;98022.06;10334930;28;20045;-55
2022/10/30 17:43:45;;;;;;;;;;;;;;;14.81;51.65;98021.47;10334009;28;20692;-55
2022/10/30 17:48:44;;;;;;;27.42;16.65;;;;;;;14.67;52.02;98013.78;10330644;28;19967;-55
2022/10/30 17:53:48;;;;;;;43.03;21.13;;;;;;;14.54;52.52;98023.50;10331049;28;20032;-55
2022/10/30 17:58:47;;;;;;;41.20;25.92;;;;;;;14.34;53.32;98031.59;10323679;28;20076;-55
2022/10/30 18:03:47;;;;;;;;;;;;;;;14.21;53.41;98032.63;10329663;28;20056;-55
2022/10/30 18:08:46;;;;;;;51.77;34.53;;;;;;;13.94;55.00;98039.88;10329193;28;19955;-55
2022/10/30 18:13:54;;;;;;;51.63;34.92;;;;;;;13.80;55.12;98039.13;10328338;28;20493;-55
2022/10/30 18:18:53;;;;;;;47.55;29.20;;;;;;;13.70;55.12;98043.59;10329154;28;20068;-55
2022/10/30 18:23:52;;;;;;;;;;;;;;;13.61;55.25;98042.75;10329909;28;20095;-55
2022/10/30 18:28:52;;;;;;;52.85;34.55;;;;;;;13.52;55.68;98054.97;10327997;28;20392;-55
2022/10/30 18:33:51;;;;;;;55.25;36.97;;;;;;;13.40;56.47;98049.00;10328684;28;20065;-55
2022/10/30 18:38:51;;;;;;;49.92;29.17;;;;;;;13.28;56.75;98039.50;10335113;28;20033;-55
2022/10/30 18:43:50;;;;;;;45.78;28.58;;;;;;;13.10;57.67;98050.94;10334950;28;20061;-55
2022/10/30 18:48:49;;;;;;;40.65;25.58;;;;;;;13.01;58.14;98036.22;10335008;28;20368;-55
2022/10/30 18:53:52;;;;;;;38.53;24.90;;;;;;;12.97;58.31;98044.94;10334003;28;20123;-55
2022/10/30 18:58:51;;;;;;;63.80;39.97;;;;;;;12.82;59.14;98050.25;10334145;28;20057;-55
2022/10/30 19:03:50;;;;;;;40.38;26.67;;;;;;;12.77;60.00;98052.00;10334772;28;20516;-55
2022/10/30 19:08:49;;;;;;;49.60;35.03;;;;;;;12.63;60.56;98054.69;10334768;28;20077;-55
2022/10/30 19:13:49;;;;;;;49.50;33.63;;;;;;;12.59;60.51;98063.38;10336448;28;20048;-55
2022/10/30 19:18:48;;;;;;;51.40;37.33;;;;;;;12.45;61.69;98077.28;10335930;28;20064;-55
2022/10/30 19:23:47;;;;;;;50.63;33.28;;;;;;;12.42;61.47;98076.44;10335718;28;20049;-55
2022/10/30 19:28:46;;;;;;;51.35;34.65;;;;;;;12.34;61.81;98083.41;10335835;28;20068;-55
2022/10/30 19:33:46;;;;;;;51.88;31.60;;;;;;;12.26;62.07;98078.19;10335460;28;20048;-55
2022/10/30 19:38:45;;;;;;;49.85;30.02;;;;;;;12.16;62.99;98087.75;10335341;28;20071;-56
2022/10/30 19:43:44;;;;;;;43.22;29.02;;;;;;;12.02;63.77;98090.38;10336317;28;20144;-56
2022/10/30 19:48:43;;;;;;;54.70;29.30;;;;;;;11.93;63.83;98086.94;10336888;28;20052;-56
2022/10/30 19:53:42;;;;;;;43.45;29.45;;;;;;;11.89;63.64;98091.25;10338124;28;20030;-55
2022/10/30 19:58:41;;;;;;;50.33;33.17;;;;;;;11.81;64.28;98103.41;10337863;28;20115;-55
2022/10/30 20:03:40;;;;;;;56.47;35.97;;;;;;;11.64;64.61;98101.69;10337646;28;20516;-58
2022/10/30 20:08:39;;;;;;;55.10;37.38;;;;;;;11.50;65.53;98095.56;10337600;28;20053;-56
2022/10/30 20:13:38;;;;;;;;;;;;;;;11.41;66.14;98099.06;10332393;28;20081;-56
2022/10/30 20:18:37;;;;;;;58.85;38.38;;;;;;;11.32;67.00;98100.78;10217751;28;20093;-55
2022/10/30 20:23:37;;;;;;;73.30;46.30;;;;;;;11.13;67.45;98105.94;10325201;28;20115;-56
2022/10/30 20:28:39;;;;;;;63.03;42.38;;;;;;;11.04;68.01;98092.94;10346104;28;20065;-56
2022/10/30 20:33:38;;;;;;;31.27;21.80;;;;;;;10.92;67.37;98106.75;10334285;28;20065;-56
2022/10/30 20:38:38;;;;;;;39.03;24.55;;;;;;;10.85;67.79;98094.56;10334971;28;20064;-56
2022/10/30 20:43:38;;;;;;;50.90;31.92;;;;;;;10.77;68.24;98089.34;10332930;28;20065;-56
2022/10/30 20:48:37;;;;;;;56.30;36.25;;;;;;;10.71;68.96;98088.47;10330696;28;20077;-54
2022/10/30 20:53:36;;;;;;;56.30;36.97;;;;;;;10.62;69.04;98095.34;10330443;28;20021;-55
2022/10/30 20:58:35;;;;;;;55.97;30.83;;;;;;;10.54;69.12;98076.28;10330518;28;20073;-55
2022/10/30 21:03:33;;;;;;;51.08;30.60;;;;;;;10.50;69.29;98082.31;10330612;28;20396;-55
2022/10/30 21:08:32;;;;;;;51.05;32.53;;;;;;;10.38;70.71;98087.47;10330215;28;20037;-54
2022/10/30 21:13:33;;;;;;;48.42;29.80;;;;;;;10.33;70.78;98089.13;10330092;28;20022;-56
2022/10/30 21:18:32;;;;;;;51.88;34.22;;;;;;;10.33;70.86;98100.41;10330765;28;20476;-56
2022/10/30 21:23:31;;;;;;;51.45;32.67;;;;;;;10.30;70.99;98107.28;10329880;28;20076;-56
2022/10/30 21:28:30;;;;;;;49.60;28.05;;;;;;;10.25;71.46;98091.69;10329919;28;20042;-56
2022/10/30 21:33:30;;;;;;;37.58;25.95;;;;;;;10.18;71.83;98108.94;10329549;28;20069;-55
2022/10/30 21:38:30;;;;;;;36.95;23.95;;;;;;;10.12;72.17;98119.28;10329623;28;20072;-56
2022/10/30 21:43:29;;;;;;;37.53;23.85;;;;;;;10.10;71.90;98115.81;10329284;28;20065;-55
2022/10/30 21:48:28;;;;;;;38.50;26.58;;;;;;;10.07;72.31;98131.34;10329314;28;20049;-55
2022/10/30 21:53:29;;;;;;;38.88;25.83;;;;;;;9.97;72.66;98125.22;10329025;28;20025;-56
2022/10/30 21:58:28;;;;;;;39.67;25.20;;;;;;;9.96;72.78;98133.00;10329359;28;20065;-55
2022/10/30 22:03:27;;;;;;;37.28;24.88;;;;;;;9.90;72.67;98128.63;10330109;28;20480;-55
2022/10/30 22:08:26;;;;;;;44.97;28.83;;;;;;;9.85;73.41;98132.06;10328969;28;20091;-55
2022/10/30 22:13:25;;;;;;;42.05;28.02;;;;;;;9.84;73.43;98132.88;10335432;28;20116;-56
2022/10/30 22:18:24;;;;;;;45.83;29.65;;;;;;;9.73;74.13;98128.50;10337266;28;20118;-55
2022/10/30 22:23:23;;;;;;;46.80;28.00;;;;;;;9.70;74.73;98130.19;10336768;28;20068;-56
2022/10/30 22:28:22;;;;;;;41.50;24.90;;;;;;;9.66;75.12;98129.31;10336346;28;20112;-56
2022/10/30 22:33:21;;;;;;;37.78;22.40;;;;;;;9.65;75.69;98122.41;10336717;28;20088;-56
2022/10/30 22:38:20;;;;;;;37.80;19.20;;;;;;;9.59;75.29;98116.28;10335957;28;20091;-55
2022/10/30 22:43:19;;;;;;;29.92;19.17;;;;;;;9.66;75.11;98129.31;10336127;28;20036;-56
2022/10/30 22:48:18;;;;;;;27.15;18.15;;;;;;;9.69;74.79;98118.09;10335319;28;20053;-56
2022/10/30 22:53:17;;;;;;;32.75;17.67;;;;;;;9.71;74.41;98130.19;10335348;28;20116;-55
2022/10/30 22:58:16;;;;;;;29.92;18.35;;;;;;;9.73;74.57;98119.88;10335225;28;20037;-55
2022/10/30 23:03:15;;;;;;;27.67;18.60;;;;;;;9.71;74.17;98119.84;10334762;28;20037;-55
2022/10/30 23:08:14;;;;;;;25.67;17.73;;;;;;;9.70;74.62;98125.00;10334485;28;20116;-55
2022/10/30 23:13:13;;;;;;;28.05;18.02;;;;;;;9.65;74.45;98125.00;10330790;28;20124;-56
2022/10/30 23:18:12;;;;;;;28.08;17.70;;;;;;;9.50;75.78;98127.44;10330976;28;20112;-56